Time;durP1;ratioP1;P1;durP2;ratioP2;P2;SDS_P1;SDS_P2;PMS_P1;PMS_P2;Temp;Humidity;BMP_temperature;BMP_pressure;BME280_temperature;BME280_humidity;BME280_pressure;Samples;Min_cycle;Max_cycle;Signal;HPM_P1;HPM_P2
2023/01/09 00:02:13;;;;;;;1.60;1.20;;;8.80;98.20;;;;;;4990340;28;20495;-76
2023/01/09 00:04:40;;;;;;;1.63;1.30;;;8.80;98.20;;;;;;4997029;28;20496;-76
2023/01/09 00:07:07;;;;;;;1.60;1.20;;;8.70;98.20;;;;;;4991152;28;20485;-78
2023/01/09 00:09:34;;;;;;;1.60;1.20;;;8.60;98.20;;;;;;4994846;28;20475;-78
2023/01/09 00:12:01;;;;;;;1.60;1.20;;;8.60;98.20;;;;;;4982497;28;20491;-78
2023/01/09 00:14:29;;;;;;;1.60;1.20;;;8.50;98.20;;;;;;4991418;28;20496;-76
2023/01/09 00:16:56;;;;;;;1.60;1.20;;;8.40;98.20;;;;;;4980611;28;20484;-78
2023/01/09 00:19:24;;;;;;;1.60;1.17;;;8.40;98.20;;;;;;4993212;28;20488;-77
2023/01/09 00:21:51;;;;;;;1.60;1.30;;;8.30;98.20;;;;;;4980396;28;20484;-75
2023/01/09 00:24:18;;;;;;;1.60;1.20;;;8.30;98.20;;;;;;4972505;28;20457;-78
2023/01/09 00:26:51;;;;;;;1.60;1.20;;;8.30;98.20;;;;;;4980539;28;20608;-75
2023/01/09 00:29:18;;;;;;;1.60;1.17;;;8.20;98.20;;;;;;5015759;23;20496;-75
2023/01/09 00:31:44;;;;;;;1.60;1.23;;;8.20;98.20;;;;;;5003753;28;20471;-74
2023/01/09 00:34:11;;;;;;;1.63;1.50;;;8.20;98.20;;;;;;5013743;28;20456;-74
2023/01/09 00:36:39;;;;;;;1.67;1.30;;;8.10;98.20;;;;;;5003336;28;20487;-74
2023/01/09 00:39:06;;;;;;;1.60;1.27;;;8.10;98.20;;;;;;5017497;28;20491;-74
2023/01/09 00:41:37;;;;;;;1.60;1.30;;;8.10;98.20;;;;;;5017732;28;20490;-75
2023/01/09 00:44:09;;;;;;;1.60;1.17;;;8.10;98.20;;;;;;5034911;23;20516;-75
2023/01/09 00:46:40;;;;;;;1.60;1.20;;;8.00;98.20;;;;;;4997149;28;20477;-75
2023/01/09 00:49:09;;;;;;;1.70;1.40;;;8.00;98.20;;;;;;4999165;28;20984;-75
2023/01/09 00:51:41;;;;;;;1.60;1.20;;;8.00;98.20;;;;;;4991814;28;20502;-74
2023/01/09 00:54:11;;;;;;;1.67;1.30;;;8.00;98.20;;;;;;4998037;28;20930;-73
2023/01/09 00:56:38;;;;;;;1.60;1.20;;;8.00;98.20;;;;;;4994929;28;20483;-74
2023/01/09 00:59:06;;;;;;;1.60;1.20;;;8.00;98.20;;;;;;4999618;28;20492;-74
2023/01/09 01:01:33;;;;;;;1.60;1.20;;;8.00;98.20;;;;;;4994392;28;20539;-73
2023/01/09 01:07:37;;;;;;;1.70;1.30;;;8.00;98.20;;;;;;5000219;28;20488;-74
2023/01/09 01:09:32;;;;;;;1.63;1.30;;;7.90;98.20;;;;;;4996962;28;20469;-73
2023/01/09 01:12:00;;;;;;;1.60;1.20;;;7.90;98.20;;;;;;4994272;28;20477;-74
2023/01/09 01:14:27;;;;;;;1.67;1.30;;;7.90;98.20;;;;;;5008049;28;20481;-73
2023/01/09 01:16:54;;;;;;;1.60;1.20;;;7.90;98.20;;;;;;5001423;28;20999;-74
2023/01/09 01:19:21;;;;;;;1.60;1.20;;;7.90;98.20;;;;;;5005230;28;21037;-74
2023/01/09 01:21:49;;;;;;;1.60;1.20;;;7.80;98.20;;;;;;5000630;28;20482;-74
2023/01/09 01:24:18;;;;;;;1.70;1.33;;;7.80;98.20;;;;;;5008557;28;20480;-74
2023/01/09 01:26:45;;;;;;;1.60;1.17;;;7.80;98.20;;;;;;4995402;28;21071;-74
2023/01/09 01:29:12;;;;;;;1.70;1.40;;;7.80;98.20;;;;;;5003947;28;20816;-73
2023/01/09 01:31:39;;;;;;;1.60;1.20;;;7.70;98.20;;;;;;4998448;28;20474;-73
2023/01/09 01:34:06;;;;;;;1.60;1.20;;;7.80;98.20;;;;;;5014523;28;20504;-73
2023/01/09 01:36:33;;;;;;;1.63;1.37;;;7.80;98.20;;;;;;5001887;28;20510;-74
2023/01/09 01:39:03;;;;;;;1.60;1.20;;;7.80;98.20;;;;;;5014468;28;20471;-73
2023/01/09 01:41:30;;;;;;;1.67;1.40;;;7.80;98.20;;;;;;5002042;28;20483;-73
2023/01/09 01:43:58;;;;;;;1.70;1.30;;;7.70;98.20;;;;;;5005790;28;20495;-74
2023/01/09 01:46:25;;;;;;;1.60;1.20;;;7.70;98.20;;;;;;4993259;28;21197;-74
2023/01/09 01:48:57;;;;;;;1.60;1.30;;;7.70;98.20;;;;;;5007315;28;20460;-74
2023/01/09 01:51:26;;;;;;;1.60;1.20;;;7.70;98.20;;;;;;4994817;28;20479;-73
2023/01/09 01:53:57;;;;;;;1.67;1.37;;;7.70;98.20;;;;;;5015366;28;20539;-74
2023/01/09 01:56:30;;;;;;;1.70;1.40;;;7.70;98.20;;;;;;5000357;28;20530;-73
2023/01/09 01:59:03;;;;;;;1.60;1.20;;;7.70;98.20;;;;;;5009235;28;20851;-73
2023/01/09 02:01:31;;;;;;;1.70;1.30;;;7.70;98.20;;;;;;4993396;28;20493;-74
2023/01/09 02:04:01;;;;;;;1.70;1.40;;;7.80;98.20;;;;;;5001885;28;20489;-73
2023/01/09 02:06:29;;;;;;;1.60;1.20;;;7.70;98.20;;;;;;4998728;28;21123;-74
2023/01/09 02:08:57;;;;;;;1.70;1.40;;;7.80;98.20;;;;;;5007338;28;20974;-74
2023/01/09 02:11:24;;;;;;;1.60;1.27;;;7.80;98.20;;;;;;4979373;28;20959;-73
2023/01/09 02:13:52;;;;;;;1.63;1.27;;;7.80;98.20;;;;;;5005113;28;21014;-74
2023/01/09 02:16:33;;;;;;;1.67;1.40;;;7.80;98.20;;;;;;4985986;28;20494;-73
2023/01/09 02:19:11;;;;;;;1.70;1.40;;;7.80;98.20;;;;;;4998343;28;20461;-74
2023/01/09 02:21:50;;;;;;;1.70;1.30;;;7.70;98.20;;;;;;4991103;28;20482;-74
2023/01/09 02:24:33;;;;;;;1.63;1.20;;;7.80;98.20;;;;;;4999799;28;20473;-74
2023/01/09 02:27:32;;;;;;;1.67;1.30;;;7.80;98.20;;;;;;4992978;28;21061;-74
2023/01/09 02:30:35;;;;;;;1.70;1.30;;;7.80;98.20;;;;;;4961978;28;20461;-74
2023/01/09 02:33:33;;;;;;;1.60;1.30;;;7.80;98.20;;;;;;5006018;28;20494;-74
2023/01/09 02:36:11;;;;;;;1.60;1.20;;;7.80;98.20;;;;;;4989602;28;21115;-73
2023/01/09 02:38:47;;;;;;;1.60;1.20;;;7.80;98.20;;;;;;5004320;28;20468;-73
2023/01/09 02:41:26;;;;;;;1.60;1.20;;;7.80;98.20;;;;;;4981557;28;20610;-74
2023/01/09 02:44:11;;;;;;;1.60;1.23;;;7.80;98.20;;;;;;4991558;28;20528;-74
2023/01/09 02:46:38;;;;;;;1.70;1.30;;;7.70;98.20;;;;;;4990247;28;20495;-73
2023/01/09 02:49:07;;;;;;;1.60;1.20;;;7.70;98.20;;;;;;5003067;28;20843;-74
2023/01/09 02:51:41;;;;;;;1.70;1.30;;;7.70;98.20;;;;;;4989226;28;20491;-74
2023/01/09 02:54:19;;;;;;;1.70;1.30;;;7.70;98.20;;;;;;4995371;28;20481;-74
2023/01/09 02:57:09;;;;;;;1.60;1.20;;;7.70;98.20;;;;;;4991030;28;20493;-74
2023/01/09 02:59:47;;;;;;;1.63;1.27;;;7.70;98.20;;;;;;4988011;28;20492;-74
2023/01/09 03:02:33;;;;;;;1.60;1.20;;;7.70;98.20;;;;;;5005338;28;20486;-74
2023/01/09 03:05:11;;;;;;;1.60;1.20;;;7.70;98.20;;;;;;4995047;28;20945;-74
2023/01/09 03:07:43;;;;;;;1.60;1.20;;;7.80;98.20;;;;;;5000447;28;20510;-73
2023/01/09 03:10:15;;;;;;;1.60;1.30;;;7.70;98.20;;;;;;4989481;28;21010;-74
2023/01/09 03:12:43;;;;;;;1.63;1.33;;;7.80;98.20;;;;;;5004842;28;20534;-74
2023/01/09 03:15:13;;;;;;;1.60;1.30;;;7.80;98.20;;;;;;4985699;28;20480;-75
2023/01/09 03:17:44;;;;;;;1.67;1.30;;;7.70;98.20;;;;;;4996627;28;20495;-74
2023/01/09 03:20:17;;;;;;;1.60;1.20;;;7.80;98.20;;;;;;4987543;28;21076;-74
2023/01/09 03:22:52;;;;;;;1.60;1.20;;;7.80;98.20;;;;;;4991397;28;20514;-74
2023/01/09 03:25:19;;;;;;;1.60;1.20;;;7.80;98.20;;;;;;4981680;28;20476;-74
2023/01/09 03:27:46;;;;;;;1.63;1.30;;;7.70;98.20;;;;;;4998377;28;20486;-74
2023/01/09 03:30:14;;;;;;;1.67;1.30;;;7.70;98.20;;;;;;4995514;28;20467;-74
2023/01/09 03:32:41;;;;;;;1.60;1.20;;;7.70;98.20;;;;;;5012974;28;20538;-75
2023/01/09 03:35:08;;;;;;;1.60;1.20;;;7.60;98.20;;;;;;4988719;28;20484;-74
2023/01/09 03:37:36;;;;;;;1.90;1.70;;;7.60;98.20;;;;;;5001150;28;20507;-74
2023/01/09 03:40:05;;;;;;;1.60;1.30;;;7.60;98.20;;;;;;4990998;28;20497;-74
2023/01/09 03:42:32;;;;;;;1.60;1.20;;;7.50;98.20;;;;;;4994807;28;20623;-74
2023/01/09 03:44:58;;;;;;;1.60;1.30;;;7.50;98.20;;;;;;4996908;28;20499;-74
2023/01/09 03:47:25;;;;;;;1.63;1.30;;;7.50;98.20;;;;;;5002297;28;20603;-74
2023/01/09 03:49:52;;;;;;;1.60;1.30;;;7.40;98.20;;;;;;4993892;28;20460;-74
2023/01/09 03:52:19;;;;;;;1.60;1.30;;;7.30;98.20;;;;;;4988502;28;21082;-72
2023/01/09 03:54:47;;;;;;;1.60;1.30;;;7.30;98.20;;;;;;4995269;28;21032;-73
2023/01/09 03:57:14;;;;;;;1.70;1.40;;;7.20;98.20;;;;;;4997829;28;20484;-74
2023/01/09 03:59:41;;;;;;;1.60;1.27;;;7.20;98.20;;;;;;4994591;28;20847;-74
2023/01/09 04:02:08;;;;;;;1.60;1.20;;;7.20;98.20;;;;;;4990431;28;20920;-73
2023/01/09 04:04:34;;;;;;;1.70;1.30;;;7.10;98.20;;;;;;4995229;28;20499;-74
2023/01/09 04:07:01;;;;;;;1.63;1.23;;;7.10;98.20;;;;;;5005928;28;20490;-74
2023/01/09 04:09:28;;;;;;;1.63;1.30;;;7.00;98.20;;;;;;5001308;28;20468;-73
2023/01/09 04:11:56;;;;;;;1.63;1.30;;;7.00;98.20;;;;;;4994618;28;20482;-74
2023/01/09 04:14:23;;;;;;;1.60;1.30;;;6.90;98.20;;;;;;4995953;28;20533;-74
2023/01/09 04:16:50;;;;;;;1.60;1.27;;;6.90;98.20;;;;;;5009845;28;20509;-74
2023/01/09 04:19:17;;;;;;;1.60;1.30;;;6.90;98.20;;;;;;4998131;28;20456;-74
2023/01/09 04:21:44;;;;;;;1.67;1.30;;;6.80;98.20;;;;;;5001569;28;20493;-74
2023/01/09 04:24:10;;;;;;;1.60;1.30;;;6.80;98.20;;;;;;5006912;28;21001;-74
2023/01/09 04:26:37;;;;;;;1.63;1.30;;;6.80;98.20;;;;;;5008313;28;20486;-74
2023/01/09 04:29:05;;;;;;;1.63;1.30;;;6.70;98.20;;;;;;5006874;28;20872;-74
2023/01/09 04:31:32;;;;;;;1.67;1.30;;;6.70;98.20;;;;;;4989256;28;20483;-74
2023/01/09 04:33:59;;;;;;;1.63;1.40;;;6.60;98.20;;;;;;5012658;28;20484;-74
2023/01/09 04:36:25;;;;;;;1.60;1.30;;;6.60;98.20;;;;;;5005838;28;20489;-74
2023/01/09 04:38:54;;;;;;;1.70;1.40;;;6.50;98.20;;;;;;5012664;28;20460;-73
2023/01/09 04:44:02;;;;;;;1.63;1.27;;;6.50;98.20;;;;;;5005149;28;20487;-73
2023/01/09 04:46:30;;;;;;;1.70;1.43;;;6.50;98.20;;;;;;4992864;28;20480;-74
2023/01/09 04:48:57;;;;;;;1.60;1.30;;;6.50;98.20;;;;;;5008275;28;20831;-74
2023/01/09 04:51:24;;;;;;;1.60;1.30;;;6.50;98.20;;;;;;4998099;28;20542;-75
2023/01/09 04:53:51;;;;;;;1.60;1.30;;;6.50;98.20;;;;;;5015290;28;20487;-73
2023/01/09 04:56:17;;;;;;;1.60;1.20;;;6.50;98.20;;;;;;4993678;28;20483;-75
2023/01/09 04:58:44;;;;;;;1.70;1.40;;;6.60;98.20;;;;;;5012037;28;20457;-74
2023/01/09 05:01:11;;;;;;;1.60;1.30;;;6.60;98.20;;;;;;4981365;28;20496;-74
2023/01/09 05:03:39;;;;;;;1.60;1.30;;;6.60;98.20;;;;;;5005756;28;20488;-74
2023/01/09 05:06:06;;;;;;;1.63;1.30;;;6.60;98.20;;;;;;4987278;28;20468;-74
2023/01/09 05:08:33;;;;;;;1.60;1.30;;;6.70;98.20;;;;;;5003822;28;21005;-73
2023/01/09 05:11:00;;;;;;;1.63;1.30;;;6.70;98.20;;;;;;4982606;28;20468;-73
2023/01/09 05:13:27;;;;;;;1.60;1.30;;;6.70;98.20;;;;;;5016936;28;20511;-74
2023/01/09 05:15:54;;;;;;;1.60;1.30;;;6.80;98.20;;;;;;4983431;28;20563;-73
2023/01/09 05:18:21;;;;;;;1.60;1.40;;;6.80;98.20;;;;;;5011784;28;20468;-73
2023/01/09 05:23:40;;;;;;;1.67;1.20;;;6.90;98.20;;;;;;4973868;28;20567;-74
2023/01/09 05:26:07;;;;;;;1.63;1.30;;;6.90;98.20;;;;;;4986372;28;20461;-75
2023/01/09 05:28:34;;;;;;;1.60;1.30;;;7.00;98.20;;;;;;5008666;28;20457;-74
2023/01/09 05:31:01;;;;;;;1.60;1.30;;;7.00;98.20;;;;;;4987005;28;20456;-74
2023/01/09 05:33:28;;;;;;;1.60;1.30;;;7.00;98.20;;;;;;5009349;28;20512;-75
2023/01/09 05:35:56;;;;;;;1.60;1.30;;;7.00;98.20;;;;;;4986499;28;20470;-75
2023/01/09 05:38:22;;;;;;;1.70;1.30;;;7.00;98.20;;;;;;5017985;28;20464;-74
2023/01/09 05:40:49;;;;;;;1.70;1.30;;;7.10;98.20;;;;;;4989373;28;20983;-74
2023/01/09 05:43:16;;;;;;;1.60;1.30;;;7.10;98.20;;;;;;5015937;28;20949;-73
2023/01/09 05:45:43;;;;;;;1.60;1.20;;;7.10;98.20;;;;;;4998368;28;20503;-74
2023/01/09 05:48:10;;;;;;;1.60;1.40;;;7.10;98.20;;;;;;5004693;28;20500;-74
2023/01/09 05:50:37;;;;;;;1.60;1.30;;;7.10;98.20;;;;;;5003946;28;20456;-74
2023/01/09 05:53:06;;;;;;;1.60;1.27;;;7.10;98.20;;;;;;5005241;28;20518;-73
2023/01/09 05:55:33;;;;;;;1.70;1.30;;;7.10;98.20;;;;;;4989115;28;20465;-74
2023/01/09 05:57:59;;;;;;;1.60;1.30;;;7.10;98.20;;;;;;4997023;28;21003;-73
2023/01/09 06:00:27;;;;;;;1.70;1.43;;;7.10;98.20;;;;;;4989028;28;20469;-73
2023/01/09 06:02:53;;;;;;;1.60;1.20;;;7.10;98.20;;;;;;5010270;28;20487;-74
2023/01/09 06:05:20;;;;;;;1.70;1.40;;;7.10;98.20;;;;;;4996827;28;20489;-75
2023/01/09 06:07:47;;;;;;;1.60;1.20;;;7.20;98.20;;;;;;4993742;28;20491;-74
2023/01/09 06:10:16;;;;;;;1.60;1.30;;;7.20;98.20;;;;;;4991724;28;21058;-74
2023/01/09 06:12:46;;;;;;;1.60;1.20;;;7.20;98.20;;;;;;5003705;28;20491;-74
2023/01/09 06:15:14;;;;;;;1.67;1.30;;;7.20;98.20;;;;;;4994932;28;21040;-73
2023/01/09 06:17:41;;;;;;;1.63;1.20;;;7.20;98.20;;;;;;4999433;28;20491;-73
2023/01/09 06:20:09;;;;;;;1.60;1.30;;;7.20;98.20;;;;;;4993947;28;20472;-75
2023/01/09 06:22:36;;;;;;;1.60;1.30;;;7.20;98.20;;;;;;4997043;28;20499;-75
2023/01/09 06:25:03;;;;;;;1.60;1.40;;;7.20;98.20;;;;;;4980441;28;20489;-75
2023/01/09 06:27:31;;;;;;;1.70;1.40;;;7.20;98.20;;;;;;4998313;28;20482;-74
2023/01/09 06:29:58;;;;;;;1.70;1.30;;;7.20;98.20;;;;;;4981937;28;20848;-75
2023/01/09 06:32:24;;;;;;;1.60;1.20;;;7.20;98.20;;;;;;4993195;28;20494;-75
2023/01/09 06:34:51;;;;;;;1.60;1.20;;;7.30;98.20;;;;;;4990671;28;20494;-73
2023/01/09 06:37:18;;;;;;;1.70;1.40;;;7.30;98.20;;;;;;4992614;28;20971;-74
2023/01/09 06:39:45;;;;;;;1.60;1.30;;;7.30;98.20;;;;;;4982050;28;20861;-74
2023/01/09 06:42:11;;;;;;;1.70;1.40;;;7.30;98.20;;;;;;4987007;28;20567;-74
2023/01/09 06:44:39;;;;;;;1.63;1.30;;;7.30;98.20;;;;;;4983868;28;20493;-73
2023/01/09 06:47:06;;;;;;;1.60;1.30;;;7.30;98.20;;;;;;4979715;28;21131;-74
2023/01/09 06:49:33;;;;;;;1.63;1.30;;;7.30;98.20;;;;;;4981557;28;20472;-75
2023/01/09 06:52:04;;;;;;;1.63;1.30;;;7.30;98.20;;;;;;4983385;28;20565;-74
2023/01/09 06:54:31;;;;;;;1.67;1.40;;;7.30;98.20;;;;;;4983828;28;20488;-75
2023/01/09 06:56:58;;;;;;;1.60;1.20;;;7.30;98.20;;;;;;4983042;28;20493;-75
2023/01/09 06:59:25;;;;;;;1.60;1.30;;;7.40;98.20;;;;;;4989999;28;20461;-75
2023/01/09 07:01:53;;;;;;;1.60;1.30;;;7.40;98.20;;;;;;4979213;28;20491;-75
2023/01/09 07:04:21;;;;;;;1.60;1.20;;;7.40;98.20;;;;;;4985554;28;20492;-75
2023/01/09 07:06:49;;;;;;;1.60;1.30;;;7.40;98.20;;;;;;4978973;28;20499;-75
2023/01/09 07:09:15;;;;;;;1.70;1.40;;;7.40;98.20;;;;;;4992011;28;20473;-75
2023/01/09 07:11:42;;;;;;;1.77;1.53;;;7.50;98.20;;;;;;4980833;28;20492;-74
2023/01/09 07:14:09;;;;;;;1.60;1.30;;;7.50;98.20;;;;;;4992190;28;20485;-73
2023/01/09 07:16:36;;;;;;;1.60;1.20;;;7.50;98.20;;;;;;4978888;28;20479;-73
2023/01/09 07:19:04;;;;;;;1.60;1.30;;;7.50;98.20;;;;;;4998015;28;20470;-71
2023/01/09 07:21:31;;;;;;;1.60;1.20;;;7.50;98.20;;;;;;4977496;28;20557;-71
2023/01/09 07:23:58;;;;;;;1.60;1.30;;;7.50;98.20;;;;;;4993650;28;20538;-72
2023/01/09 07:26:25;;;;;;;1.60;1.30;;;7.60;98.20;;;;;;4973529;28;21419;-74
2023/01/09 07:28:51;;;;;;;1.60;1.30;;;7.60;98.20;;;;;;4985937;28;20552;-74
2023/01/09 07:31:18;;;;;;;1.60;1.20;;;7.60;98.20;;;;;;4974175;28;20483;-74
2023/01/09 07:33:45;;;;;;;1.60;1.30;;;7.60;98.20;;;;;;5002258;28;20492;-72
2023/01/09 07:36:13;;;;;;;1.63;1.20;;;7.60;98.20;;;;;;4971234;28;20485;-72
2023/01/09 07:38:40;;;;;;;1.67;1.33;;;7.60;98.20;;;;;;4986867;28;20466;-72
2023/01/09 07:41:07;;;;;;;1.67;1.30;;;7.60;98.20;;;;;;4966987;28;21059;-74
2023/01/09 07:43:33;;;;;;;1.60;1.30;;;7.60;98.20;;;;;;4989864;28;20516;-73
2023/01/09 07:46:00;;;;;;;1.60;1.20;;;7.70;98.20;;;;;;4973376;28;20492;-73
2023/01/09 07:48:27;;;;;;;1.60;1.20;;;7.70;98.20;;;;;;4988362;28;20852;-74
2023/01/09 07:50:54;;;;;;;1.60;1.20;;;7.70;98.20;;;;;;4965554;28;20473;-72
2023/01/09 07:53:22;;;;;;;1.63;1.30;;;7.70;98.20;;;;;;5005142;28;20498;-72
2023/01/09 07:55:49;;;;;;;1.60;1.20;;;7.70;98.20;;;;;;4964652;28;20549;-74
2023/01/09 07:58:15;;;;;;;1.60;1.27;;;7.70;98.20;;;;;;4989999;28;20483;-72
2023/01/09 08:00:42;;;;;;;1.67;1.30;;;7.70;98.20;;;;;;4969672;28;20465;-72
2023/01/09 08:03:09;;;;;;;1.70;1.30;;;7.70;98.20;;;;;;4983304;28;20496;-73
2023/01/09 08:05:36;;;;;;;1.60;1.20;;;7.70;98.20;;;;;;4978284;28;20461;-73
2023/01/09 08:08:03;;;;;;;1.67;1.30;;;7.70;98.20;;;;;;4978399;28;20522;-73
2023/01/09 08:10:31;;;;;;;1.60;1.23;;;7.70;98.20;;;;;;4976523;28;20472;-74
2023/01/09 08:12:58;;;;;;;1.70;1.30;;;7.80;98.20;;;;;;4982209;28;21106;-74
2023/01/09 08:15:24;;;;;;;1.63;1.20;;;7.80;98.20;;;;;;4978054;28;20659;-72
2023/01/09 08:17:51;;;;;;;1.60;1.20;;;7.80;98.20;;;;;;4980914;28;20543;-72
2023/01/09 08:20:18;;;;;;;1.70;1.30;;;7.80;98.20;;;;;;4978250;28;20876;-76
2023/01/09 08:22:52;;;;;;;1.60;1.20;;;7.80;98.20;;;;;;4980238;28;20492;-72
2023/01/09 08:25:19;;;;;;;1.63;1.30;;;7.80;98.20;;;;;;4980876;28;20520;-74
2023/01/09 08:27:47;;;;;;;1.60;1.30;;;7.80;98.20;;;;;;4981738;28;20489;-71
2023/01/09 08:30:15;;;;;;;1.60;1.20;;;7.90;98.20;;;;;;4976040;28;20933;-71
2023/01/09 08:32:42;;;;;;;1.70;1.40;;;7.90;98.20;;;;;;4995699;28;20479;-71
2023/01/09 08:35:10;;;;;;;1.60;1.30;;;7.90;98.20;;;;;;4975886;28;20769;-71
2023/01/09 08:37:39;;;;;;;1.70;1.50;;;7.90;98.20;;;;;;4990570;28;20494;-73
2023/01/09 08:40:07;;;;;;;1.70;1.30;;;7.90;98.20;;;;;;4982476;28;20473;-71
2023/01/09 08:48:04;;;;;;;1.60;1.20;;;8.20;98.20;;;;;;4979515;28;20498;-71
2023/01/09 08:50:31;;;;;;;1.60;1.30;;;8.30;98.20;;;;;;4980327;28;21177;-72
2023/01/09 08:52:58;;;;;;;1.60;1.20;;;8.40;98.20;;;;;;4994654;28;20475;-71
2023/01/09 08:55:25;;;;;;;1.60;1.20;;;8.50;98.20;;;;;;4979364;28;20489;-73
2023/01/09 08:57:54;;;;;;;1.70;1.40;;;8.60;98.20;;;;;;4976891;28;20485;-72
2023/01/09 09:00:26;;;;;;;1.60;1.20;;;8.70;98.20;;;;;;4978111;28;20552;-71
2023/01/09 09:02:54;;;;;;;1.63;1.30;;;8.80;98.20;;;;;;4993966;28;20475;-71
2023/01/09 09:05:25;;;;;;;1.60;1.20;;;8.90;98.20;;;;;;4975571;28;20489;-72
2023/01/09 09:07:54;;;;;;;1.60;1.20;;;8.90;98.20;;;;;;4991419;28;20570;-74
2023/01/09 09:10:26;;;;;;;1.63;1.20;;;8.90;98.20;;;;;;4971131;28;20557;-73
2023/01/09 09:12:55;;;;;;;1.60;1.20;;;8.90;98.20;;;;;;4994084;28;20622;-73
2023/01/09 09:15:23;;;;;;;1.60;1.20;;;9.00;98.20;;;;;;4972567;28;20596;-72
2023/01/09 09:17:52;;;;;;;1.60;1.20;;;9.00;98.20;;;;;;4993506;28;20574;-71
2023/01/09 09:20:19;;;;;;;1.60;1.20;;;9.00;98.20;;;;;;4979918;28;20555;-72
2023/01/09 09:22:46;;;;;;;1.60;1.20;;;9.00;98.20;;;;;;4996238;28;20473;-71
2023/01/09 09:25:13;;;;;;;1.60;1.20;;;9.00;98.20;;;;;;4971965;28;20989;-72
2023/01/09 09:27:40;;;;;;;1.60;1.20;;;9.00;98.20;;;;;;4979489;28;20499;-71
2023/01/09 09:30:09;;;;;;;1.60;1.30;;;9.00;98.20;;;;;;4975120;28;20476;-72
2023/01/09 09:32:37;;;;;;;1.60;1.20;;;9.00;98.20;;;;;;4995474;28;20986;-71
2023/01/09 09:35:05;;;;;;;1.60;1.10;;;9.00;98.20;;;;;;4975618;28;20935;-72
2023/01/09 09:37:32;;;;;;;1.60;1.30;;;9.00;98.20;;;;;;4974384;28;20916;-71
2023/01/09 09:39:58;;;;;;;1.60;1.20;;;9.00;98.20;;;;;;4977477;28;20467;-72
2023/01/09 09:45:42;;;;;;;1.60;1.27;;;8.90;98.20;;;;;;4974285;28;20460;-72
2023/01/09 09:48:28;;;;;;;1.60;1.30;;;8.90;98.20;;;;;;4994934;28;20493;-73
2023/01/09 09:51:12;;;;;;;1.60;1.20;;;8.90;98.20;;;;;;4969064;28;20460;-72
2023/01/09 09:53:44;;;;;;;1.60;1.20;;;8.90;98.20;;;;;;4983321;28;20564;-73
2023/01/09 09:56:13;;;;;;;1.60;1.20;;;9.00;98.20;;;;;;4965760;28;20496;-73
2023/01/09 09:58:41;;;;;;;1.60;1.10;;;9.00;98.20;;;;;;4985433;28;20469;-73
2023/01/09 10:01:12;;;;;;;1.60;1.30;;;9.00;98.20;;;;;;4969526;28;20988;-73
2023/01/09 10:03:45;;;;;;;1.60;1.20;;;9.00;98.20;;;;;;4999767;28;20502;-73
2023/01/09 10:06:19;;;;;;;1.60;1.20;;;9.10;98.20;;;;;;4970775;28;20504;-72
2023/01/09 10:08:54;;;;;;;1.60;1.20;;;9.10;98.20;;;;;;4986386;28;21117;-71
2023/01/09 10:11:27;;;;;;;1.60;1.20;;;9.10;98.20;;;;;;4972318;28;20862;-72
2023/01/09 10:14:06;;;;;;;1.60;1.10;;;9.10;98.20;;;;;;4987709;28;20485;-71
2023/01/09 10:16:45;;;;;;;1.60;1.20;;;9.10;98.20;;;;;;4970328;28;20499;-72
2023/01/09 10:19:31;;;;;;;1.60;1.30;;;9.10;98.20;;;;;;4982089;28;20457;-72
2023/01/09 10:22:10;;;;;;;1.60;1.20;;;9.00;98.20;;;;;;4983161;28;20781;-72
2023/01/09 10:24:52;;;;;;;1.60;1.30;;;9.00;98.20;;;;;;4988574;28;20939;-72
2023/01/09 10:27:30;;;;;;;1.60;1.20;;;9.00;98.20;;;;;;4974936;28;20484;-73
2023/01/09 10:30:13;;;;;;;1.60;1.10;;;9.00;98.20;;;;;;4975987;28;20461;-71
2023/01/09 10:32:51;;;;;;;1.60;1.30;;;9.00;98.20;;;;;;4989880;28;20488;-72
2023/01/09 10:35:43;;;;;;;1.60;1.20;;;9.00;98.20;;;;;;4966353;28;20488;-72
2023/01/09 10:38:13;;;;;;;1.60;1.27;;;9.00;98.20;;;;;;4989658;28;20486;-72
2023/01/09 10:40:43;;;;;;;1.60;1.17;;;9.00;98.20;;;;;;4977330;28;20492;-72
2023/01/09 10:43:17;;;;;;;1.60;1.20;;;9.00;98.20;;;;;;4996405;28;20504;-72
2023/01/09 10:45:51;;;;;;;1.60;1.20;;;9.00;98.20;;;;;;4975515;28;20468;-72
2023/01/09 10:48:24;;;;;;;1.60;1.20;;;9.10;98.20;;;;;;4958367;28;20481;-71
2023/01/09 10:50:54;;;;;;;1.60;1.20;;;9.10;98.20;;;;;;4959850;28;20838;-71
2023/01/09 10:53:28;;;;;;;1.60;1.20;;;9.10;98.20;;;;;;4975200;28;20466;-72
2023/01/09 10:56:00;;;;;;;1.60;1.30;;;9.10;98.20;;;;;;4961321;28;20470;-72
2023/01/09 10:58:28;;;;;;;1.60;1.20;;;9.10;98.20;;;;;;4997660;28;20466;-72
2023/01/09 11:00:55;;;;;;;1.60;1.20;;;9.00;98.20;;;;;;4964928;28;20469;-72
2023/01/09 11:03:24;;;;;;;1.60;1.20;;;9.00;98.20;;;;;;5003823;28;20981;-71
2023/01/09 11:05:57;;;;;;;1.60;1.20;;;9.00;98.20;;;;;;4967317;28;20488;-71
2023/01/09 11:08:29;;;;;;;1.60;1.20;;;9.00;98.20;;;;;;5001665;28;20473;-72
2023/01/09 11:10:58;;;;;;;1.60;1.30;;;9.10;98.20;;;;;;4964918;28;20699;-70
2023/01/09 11:13:28;;;;;;;1.60;1.20;;;9.10;98.20;;;;;;4985552;28;20493;-71
2023/01/09 11:16:03;;;;;;;1.60;1.10;;;9.10;98.20;;;;;;4966093;28;20552;-71
2023/01/09 11:18:30;;;;;;;1.60;1.20;;;9.20;98.20;;;;;;4983108;28;20465;-71
2023/01/09 11:21:13;;;;;;;1.60;1.20;;;9.20;98.20;;;;;;4961528;28;20837;-72
2023/01/09 11:23:40;;;;;;;1.60;1.20;;;9.20;98.20;;;;;;4995600;28;20497;-72
2023/01/09 11:26:20;;;;;;;1.60;1.30;;;9.20;98.20;;;;;;4963391;28;20470;-73
2023/01/09 11:29:05;;;;;;;1.60;1.20;;;9.30;98.20;;;;;;4991980;28;20487;-72
2023/01/09 11:31:32;;;;;;;1.60;1.20;;;9.30;98.20;;;;;;4977195;28;20492;-71
2023/01/09 11:33:59;;;;;;;1.60;1.10;;;9.40;98.20;;;;;;4991995;28;20497;-71
2023/01/09 11:36:32;;;;;;;1.60;1.17;;;9.40;98.20;;;;;;4969242;28;20501;-72
2023/01/09 11:39:01;;;;;;;1.60;1.20;;;9.40;98.20;;;;;;4988519;28;20473;-72
2023/01/09 11:41:30;;;;;;;1.60;1.10;;;9.40;98.20;;;;;;4974646;28;20573;-72
2023/01/09 11:43:59;;;;;;;1.60;1.20;;;9.50;98.20;;;;;;4988722;28;20529;-72
2023/01/09 11:46:32;;;;;;;1.60;1.20;;;9.50;98.20;;;;;;4968160;28;20481;-73
2023/01/09 11:48:59;;;;;;;1.60;1.20;;;9.50;98.20;;;;;;4981223;28;20476;-72
2023/01/09 11:51:28;;;;;;;1.60;1.10;;;9.50;98.20;;;;;;4967622;28;20489;-73
2023/01/09 11:54:21;;;;;;;1.60;1.20;;;9.50;98.20;;;;;;4980414;28;20491;-72
2023/01/09 11:56:49;;;;;;;1.60;1.20;;;9.60;98.20;;;;;;4977884;28;21224;-73
2023/01/09 11:59:18;;;;;;;1.60;1.20;;;9.70;98.20;;;;;;4982313;28;20469;-72
2023/01/09 12:02:14;;;;;;;1.60;1.20;;;9.70;98.20;;;;;;4981123;28;20567;-73
2023/01/09 12:04:48;;;;;;;1.60;1.10;;;9.70;98.20;;;;;;4985607;28;20849;-72
2023/01/09 12:07:37;;;;;;;1.60;1.10;;;9.70;98.20;;;;;;4984469;28;21006;-73
2023/01/09 12:10:23;;;;;;;2.40;2.20;;;9.70;98.20;;;;;;4977407;28;20464;-72
2023/01/09 12:12:58;;;;;;;1.60;1.27;;;9.60;98.20;;;;;;4992460;28;20482;-72
2023/01/09 12:15:32;;;;;;;1.63;1.33;;;9.60;98.20;;;;;;4972546;28;20489;-72
2023/01/09 12:18:08;;;;;;;1.60;1.20;;;9.60;98.20;;;;;;4978150;28;20981;-72
2023/01/09 12:21:00;;;;;;;1.60;1.20;;;9.50;98.20;;;;;;4972996;28;20858;-71
2023/01/09 12:23:40;;;;;;;1.60;1.30;;;9.50;98.20;;;;;;4960884;28;20485;-72
2023/01/09 12:26:17;;;;;;;1.60;1.10;;;9.50;98.20;;;;;;4968399;28;22318;-72
2023/01/09 12:29:01;;;;;;;1.60;1.20;;;9.40;98.20;;;;;;4993795;28;20568;-73
2023/01/09 12:31:44;;;;;;;1.60;1.33;;;9.40;98.20;;;;;;4971076;28;20480;-73
2023/01/09 12:34:28;;;;;;;1.60;1.30;;;9.40;98.20;;;;;;4986694;28;20485;-73
2023/01/09 12:37:04;;;;;;;1.60;1.10;;;9.40;98.20;;;;;;4983872;28;20495;-72
2023/01/09 12:39:40;;;;;;;1.60;1.20;;;9.30;98.20;;;;;;4981268;28;21094;-72
2023/01/09 12:42:25;;;;;;;1.60;1.10;;;9.30;98.20;;;;;;4974683;28;20494;-72
2023/01/09 12:44:58;;;;;;;1.60;1.20;;;9.30;98.20;;;;;;4976171;28;20497;-72
2023/01/09 12:47:44;;;;;;;1.60;1.20;;;9.20;98.20;;;;;;4985202;28;20487;-72
2023/01/09 12:50:37;;;;;;;1.60;1.10;;;9.20;98.20;;;;;;4974515;28;20483;-72
2023/01/09 12:53:14;;;;;;;1.60;1.20;;;9.30;98.20;;;;;;4976006;28;21063;-71
2023/01/09 12:55:44;;;;;;;1.60;1.20;;;9.30;98.20;;;;;;4975377;28;20500;-72
2023/01/09 12:58:25;;;;;;;1.60;1.20;;;9.30;98.20;;;;;;4989705;28;20489;-70
2023/01/09 13:00:54;;;;;;;1.60;1.20;;;9.30;98.20;;;;;;4965053;28;20464;-71
2023/01/09 13:03:27;;;;;;;1.60;1.20;;;9.30;98.20;;;;;;5002061;28;20489;-71
2023/01/09 13:05:56;;;;;;;1.60;1.10;;;9.30;98.20;;;;;;4968414;28;20460;-71
2023/01/09 13:08:27;;;;;;;1.60;1.20;;;9.30;98.20;;;;;;4999184;28;20491;-71
2023/01/09 13:10:58;;;;;;;1.60;1.20;;;9.30;98.20;;;;;;4964747;28;20661;-71
2023/01/09 13:13:34;;;;;;;1.60;1.20;;;9.30;98.20;;;;;;4999117;28;20571;-72
2023/01/09 13:16:05;;;;;;;1.60;1.20;;;9.30;98.20;;;;;;4964325;28;20472;-71
2023/01/09 13:18:39;;;;;;;1.60;1.10;;;9.30;98.20;;;;;;4982959;28;20466;-71
2023/01/09 13:21:07;;;;;;;1.60;1.17;;;9.30;98.20;;;;;;4973921;28;20468;-71
2023/01/09 13:23:42;;;;;;;1.60;1.20;;;9.30;98.20;;;;;;5000687;28;21052;-72
2023/01/09 13:26:14;;;;;;;1.60;1.20;;;9.20;98.20;;;;;;4969329;28;20700;-73
2023/01/09 13:28:46;;;;;;;1.60;1.10;;;9.20;98.20;;;;;;4998530;28;20496;-72
2023/01/09 13:31:35;;;;;;;1.60;1.10;;;9.20;98.20;;;;;;4969180;28;20470;-72
2023/01/09 13:34:05;;;;;;;1.60;1.13;;;9.20;98.20;;;;;;4998122;28;20484;-72